ESMK/KID METAR and TAF weather

Enter ICAO airport designator
Station Type Date Time Source
ESMK METAR 2019/06/26 21:50 UTC NOAA

ESMK 262150Z AUTO 29012KT 9999 NCD 17/15 Q1017


Station Type Date Time Source
ESMK Decoded METAR 2019/06/26 21:50 UTC NOAA

Kristianstad / Everod, Sweden (ESMK) 55-55N 014-05E
Jun 26, 2019 - 05:50 PM EDT / 2019.06.26 2150 UTC
Wind: from the WNW (290 degrees) at 14 MPH (12 KT):0
Visibility: greater than 7 mile(s):0
Temperature: 62 F (17 C)
Dew Point: 59 F (15 C)
Relative Humidity: 88%
Pressure (altimeter): 30.03 in. Hg (1017 hPa)
ob: ESMK 262150Z AUTO 29012KT 9999 NCD 17/15 Q1017
cycle: 22

Station Type Date Time Source
ESMK TAF 2015/03/18 12:33 UTC NOAA

TAF ESMK 181130Z 1812/1824 13012KT CAVOK

Example: see airport list